sensor_id;sensor_type;location;lat;lon;timestamp;pressure;altitude;pressure_sealevel;temperature;humidity
6829;BME280;17930;48.592;8.868;2022-12-26T00:01:36;96778.22;;;6.65;100.00
6829;BME280;17930;48.592;8.868;2022-12-26T00:04:04;96784.63;;;6.84;100.00
6829;BME280;17930;48.592;8.868;2022-12-26T00:06:31;96774.09;;;6.95;100.00
6829;BME280;17930;48.592;8.868;2022-12-26T00:08:59;96783.16;;;6.98;100.00
6829;BME280;17930;48.592;8.868;2022-12-26T00:11:28;96782.16;;;6.99;100.00
6829;BME280;17930;48.592;8.868;2022-12-26T00:13:56;96783.38;;;6.91;100.00
6829;BME280;17930;48.592;8.868;2022-12-26T00:16:24;96786.31;;;7.00;100.00
6829;BME280;17930;48.592;8.868;2022-12-26T00:18:52;96787.31;;;6.94;100.00
6829;BME280;17930;48.592;8.868;2022-12-26T00:21:19;96771.19;;;6.87;100.00
6829;BME280;17930;48.592;8.868;2022-12-26T00:23:46;96783.66;;;6.95;100.00
6829;BME280;17930;48.592;8.868;2022-12-26T00:26:15;96786.31;;;7.00;100.00
6829;BME280;17930;48.592;8.868;2022-12-26T00:28:44;96787.09;;;7.00;100.00
6829;BME280;17930;48.592;8.868;2022-12-26T00:31:12;96786.16;;;7.16;100.00
6829;BME280;17930;48.592;8.868;2022-12-26T00:33:40;96793.91;;;7.11;100.00
6829;BME280;17930;48.592;8.868;2022-12-26T00:36:09;96787.91;;;7.06;100.00
6829;BME280;17930;48.592;8.868;2022-12-26T00:38:38;96782.41;;;6.97;100.00
6829;BME280;17930;48.592;8.868;2022-12-26T00:41:06;96781.53;;;6.87;100.00
6829;BME280;17930;48.592;8.868;2022-12-26T00:43:34;96776.38;;;6.87;100.00
6829;BME280;17930;48.592;8.868;2022-12-26T00:46:03;96771.19;;;6.87;100.00
6829;BME280;17930;48.592;8.868;2022-12-26T00:48:30;96783.38;;;6.91;100.00
6829;BME280;17930;48.592;8.868;2022-12-26T00:50:56;96790.25;;;6.76;100.00
6829;BME280;17930;48.592;8.868;2022-12-26T00:53:24;96790.25;;;6.76;100.00
6829;BME280;17930;48.592;8.868;2022-12-26T00:55:51;96777.91;;;6.88;100.00
6829;BME280;17930;48.592;8.868;2022-12-26T00:58:19;96769.00;;;7.05;100.00
6829;BME280;17930;48.592;8.868;2022-12-26T01:00:46;96767.94;;;7.06;100.00
6829;BME280;17930;48.592;8.868;2022-12-26T01:03:15;96773.09;;;7.01;100.00
6829;BME280;17930;48.592;8.868;2022-12-26T01:05:44;96777.97;;;6.98;100.00
6829;BME280;17930;48.592;8.868;2022-12-26T01:08:11;96789.31;;;6.87;100.00
6829;BME280;17930;48.592;8.868;2022-12-26T01:10:39;96770.88;;;6.83;100.00
6829;BME280;17930;48.592;8.868;2022-12-26T01:13:06;96783.09;;;6.88;100.00
6829;BME280;17930;48.592;8.868;2022-12-26T01:15:33;96773.91;;;7.07;100.00
6829;BME280;17930;48.592;8.868;2022-12-26T01:18:00;96778.63;;;7.14;100.00
6829;BME280;17930;48.592;8.868;2022-12-26T01:20:28;96777.03;;;7.09;100.00
6829;BME280;17930;48.592;8.868;2022-12-26T01:22:55;96785.81;;;7.03;100.00
6829;BME280;17930;48.592;8.868;2022-12-26T01:25:22;96783.88;;;7.19;100.00
6829;BME280;17930;48.592;8.868;2022-12-26T01:27:49;96778.22;;;7.27;100.00
6829;BME280;17930;48.592;8.868;2022-12-26T01:30:16;96791.34;;;7.16;100.00
6829;BME280;17930;48.592;8.868;2022-12-26T01:32:43;96783.81;;;7.14;100.00
6829;BME280;17930;48.592;8.868;2022-12-26T01:35:09;96781.97;;;7.10;100.00
6829;BME280;17930;48.592;8.868;2022-12-26T01:37:37;96784.81;;;7.09;100.00
6829;BME280;17930;48.592;8.868;2022-12-26T01:40:05;96789.50;;;7.12;100.00
6829;BME280;17930;48.592;8.868;2022-12-26T01:42:36;96796.25;;;7.13;100.00
6829;BME280;17930;48.592;8.868;2022-12-26T01:45:05;96793.63;;;7.08;100.00
6829;BME280;17930;48.592;8.868;2022-12-26T01:47:40;96795.06;;;7.25;100.00
6829;BME280;17930;48.592;8.868;2022-12-26T01:50:25;96801.53;;;7.22;100.00
6829;BME280;17930;48.592;8.868;2022-12-26T01:52:55;96798.50;;;7.35;100.00
6829;BME280;17930;48.592;8.868;2022-12-26T01:55:23;96796.34;;;7.22;100.00
6829;BME280;17930;48.592;8.868;2022-12-26T01:57:54;96801.25;;;7.19;100.00
6829;BME280;17930;48.592;8.868;2022-12-26T02:00:22;96792.41;;;7.20;100.00
6829;BME280;17930;48.592;8.868;2022-12-26T02:02:49;96786.97;;;7.16;100.00
6829;BME280;17930;48.592;8.868;2022-12-26T02:05:34;96789.63;;;7.26;100.00
6829;BME280;17930;48.592;8.868;2022-12-26T02:08:04;96783.41;;;7.27;100.00
6829;BME280;17930;48.592;8.868;2022-12-26T02:10:35;96775.59;;;7.22;100.00
6829;BME280;17930;48.592;8.868;2022-12-26T02:13:03;96776.59;;;7.21;100.00
6829;BME280;17930;48.592;8.868;2022-12-26T02:15:30;96772.94;;;7.17;100.00
6829;BME280;17930;48.592;8.868;2022-12-26T02:17:57;96782.78;;;7.15;100.00
6829;BME280;17930;48.592;8.868;2022-12-26T02:20:26;96784.06;;;7.13;100.00
6829;BME280;17930;48.592;8.868;2022-12-26T02:26:38;96793.22;;;7.20;100.00
6829;BME280;17930;48.592;8.868;2022-12-26T02:32:13;96798.41;;;7.20;100.00
6829;BME280;17930;48.592;8.868;2022-12-26T02:34:51;96801.53;;;7.22;100.00
6829;BME280;17930;48.592;8.868;2022-12-26T02:37:27;96793.69;;;7.17;100.00
6829;BME280;17930;48.592;8.868;2022-12-26T02:40:07;96795.81;;;7.25;100.00
6829;BME280;17930;48.592;8.868;2022-12-26T02:42:50;96798.47;;;7.30;100.00
6829;BME280;17930;48.592;8.868;2022-12-26T02:45:27;96798.50;;;7.35;100.00
6829;BME280;17930;48.592;8.868;2022-12-26T02:48:19;96804.31;;;7.52;100.00
6829;BME280;17930;48.592;8.868;2022-12-26T02:50:59;96803.28;;;7.53;100.00
6829;BME280;17930;48.592;8.868;2022-12-26T02:53:53;96793.47;;;7.65;100.00
6829;BME280;17930;48.592;8.868;2022-12-26T02:56:44;96805.69;;;7.64;100.00
6829;BME280;17930;48.592;8.868;2022-12-26T02:59:38;96804.41;;;7.67;100.00
6829;BME280;17930;48.592;8.868;2022-12-26T03:02:28;96806.97;;;7.62;100.00
6829;BME280;17930;48.592;8.868;2022-12-26T03:05:21;96796.56;;;7.62;100.00
6829;BME280;17930;48.592;8.868;2022-12-26T03:08:12;96809.81;;;7.61;100.00
6829;BME280;17930;48.592;8.868;2022-12-26T03:10:57;96803.84;;;7.60;100.00
6829;BME280;17930;48.592;8.868;2022-12-26T03:13:42;96802.84;;;7.71;100.00
6829;BME280;17930;48.592;8.868;2022-12-26T03:16:11;96795.09;;;7.81;100.00
6829;BME280;17930;48.592;8.868;2022-12-26T03:19:00;96785.75;;;7.75;100.00
6829;BME280;17930;48.592;8.868;2022-12-26T03:21:34;96780.50;;;7.65;100.00
6829;BME280;17930;48.592;8.868;2022-12-26T03:24:03;96778.66;;;7.61;100.00
6829;BME280;17930;48.592;8.868;2022-12-26T03:26:35;96777.34;;;7.53;100.00
6829;BME280;17930;48.592;8.868;2022-12-26T03:29:06;96779.88;;;7.48;100.00
6829;BME280;17930;48.592;8.868;2022-12-26T03:31:51;96786.59;;;7.44;100.00
6829;BME280;17930;48.592;8.868;2022-12-26T03:34:18;96767.41;;;7.40;100.00
6829;BME280;17930;48.592;8.868;2022-12-26T03:36:58;96763.03;;;7.51;100.00
6829;BME280;17930;48.592;8.868;2022-12-26T03:39:33;96762.78;;;7.47;100.00
6829;BME280;17930;48.592;8.868;2022-12-26T03:42:21;96767.97;;;7.47;100.00
6829;BME280;17930;48.592;8.868;2022-12-26T03:45:14;96763.81;;;7.46;100.00
6829;BME280;17930;48.592;8.868;2022-12-26T03:48:06;96777.53;;;7.47;100.00
6829;BME280;17930;48.592;8.868;2022-12-26T03:51:00;96770.53;;;7.42;100.00
6829;BME280;17930;48.592;8.868;2022-12-26T03:53:55;96775.72;;;7.42;100.00
6829;BME280;17930;48.592;8.868;2022-12-26T03:56:44;96779.63;;;7.45;100.00
6829;BME280;17930;48.592;8.868;2022-12-26T03:59:29;96785.06;;;7.48;100.00
6829;BME280;17930;48.592;8.868;2022-12-26T04:02:17;96790.63;;;7.62;100.00
6829;BME280;17930;48.592;8.868;2022-12-26T04:05:04;96785.81;;;7.39;100.00
6829;BME280;17930;48.592;8.868;2022-12-26T04:07:53;96793.78;;;7.27;100.00
6829;BME280;17930;48.592;8.868;2022-12-26T04:10:41;96789.31;;;7.18;100.00
6829;BME280;17930;48.592;8.868;2022-12-26T04:13:31;96786.41;;;7.14;100.00
6829;BME280;17930;48.592;8.868;2022-12-26T04:16:26;96796.25;;;7.13;100.00
6829;BME280;17930;48.592;8.868;2022-12-26T04:19:19;96797.78;;;7.09;100.00
6829;BME280;17930;48.592;8.868;2022-12-26T04:21:53;96792.28;;;7.00;100.00
6829;BME280;17930;48.592;8.868;2022-12-26T04:24:47;96792.75;;;6.97;100.00
6829;BME280;17930;48.592;8.868;2022-12-26T04:27:35;96785.28;;;7.01;100.00
6829;BME280;17930;48.592;8.868;2022-12-26T04:30:19;96799.31;;;7.05;100.00
6829;BME280;17930;48.592;8.868;2022-12-26T04:33:06;96808.94;;;7.09;100.00
6829;BME280;17930;48.592;8.868;2022-12-26T04:35:54;96794.25;;;7.24;100.00
6829;BME280;17930;48.592;8.868;2022-12-26T04:38:43;96786.66;;;7.49;100.00
6829;BME280;17930;48.592;8.868;2022-12-26T04:41:30;96782.03;;;7.56;100.00
6829;BME280;17930;48.592;8.868;2022-12-26T04:44:18;96788.78;;;7.62;100.00
6829;BME280;17930;48.592;8.868;2022-12-26T04:46:47;96784.16;;;7.69;100.00
6829;BME280;17930;48.592;8.868;2022-12-26T04:49:16;96786.81;;;7.79;100.00
6829;BME280;17930;48.592;8.868;2022-12-26T04:52:05;96786.84;;;7.89;100.00
6829;BME280;17930;48.592;8.868;2022-12-26T04:54:32;96781.13;;;7.87;100.00
6829;BME280;17930;48.592;8.868;2022-12-26T04:56:59;96781.09;;;7.82;100.00
6829;BME280;17930;48.592;8.868;2022-12-26T04:59:27;96792.50;;;7.76;100.00
6829;BME280;17930;48.592;8.868;2022-12-26T05:01:54;96785.47;;;7.71;100.00
6829;BME280;17930;48.592;8.868;2022-12-26T05:04:38;96780.03;;;7.78;100.00
6829;BME280;17930;48.592;8.868;2022-12-26T05:07:24;96776.56;;;7.58;100.00
6829;BME280;17930;48.592;8.868;2022-12-26T05:10:12;96769.31;;;7.55;100.00
6829;BME280;17930;48.592;8.868;2022-12-26T05:12:41;96760.75;;;7.59;100.00
6829;BME280;17930;48.592;8.868;2022-12-26T05:15:09;96762.38;;;7.70;100.00
6829;BME280;17930;48.592;8.868;2022-12-26T05:17:36;96761.34;;;7.76;100.00
6829;BME280;17930;48.592;8.868;2022-12-26T05:20:20;96764.50;;;7.83;100.00
6829;BME280;17930;48.592;8.868;2022-12-26T05:23:12;96763.34;;;7.64;100.00
6829;BME280;17930;48.592;8.868;2022-12-26T05:25:58;96759.63;;;7.45;100.00
6829;BME280;17930;48.592;8.868;2022-12-26T05:28:43;96766.28;;;7.26;100.00
6829;BME280;17930;48.592;8.868;2022-12-26T05:31:12;96774.50;;;7.13;100.00
6829;BME280;17930;48.592;8.868;2022-12-26T05:33:39;96778.06;;;7.08;100.00
6829;BME280;17930;48.592;8.868;2022-12-26T05:36:27;96780.06;;;6.96;100.00
6829;BME280;17930;48.592;8.868;2022-12-26T05:38:54;96785.00;;;6.97;100.00
6829;BME280;17930;48.592;8.868;2022-12-26T05:41:21;96785.81;;;7.03;100.00
6829;BME280;17930;48.592;8.868;2022-12-26T05:43:48;96786.09;;;7.06;100.00
6829;BME280;17930;48.592;8.868;2022-12-26T05:46:16;96794.41;;;7.08;100.00
6829;BME280;17930;48.592;8.868;2022-12-26T05:48:43;96794.75;;;7.21;100.00
6829;BME280;17930;48.592;8.868;2022-12-26T05:51:09;96796.19;;;7.39;100.00
6829;BME280;17930;48.592;8.868;2022-12-26T05:53:36;96801.19;;;7.50;100.00
6829;BME280;17930;48.592;8.868;2022-12-26T05:56:03;96808.47;;;7.53;100.00
6829;BME280;17930;48.592;8.868;2022-12-26T05:58:30;96804.06;;;7.54;100.00
6829;BME280;17930;48.592;8.868;2022-12-26T06:01:08;96787.22;;;7.56;100.00
6829;BME280;17930;48.592;8.868;2022-12-26T06:03:37;96773.75;;;7.64;100.00
6829;BME280;17930;48.592;8.868;2022-12-26T06:06:05;96773.69;;;7.54;100.00
6829;BME280;17930;48.592;8.868;2022-12-26T06:08:32;96769.06;;;7.61;100.00
6829;BME280;17930;48.592;8.868;2022-12-26T06:11:02;96779.31;;;7.41;100.00
6829;BME280;17930;48.592;8.868;2022-12-26T06:13:29;96777.47;;;7.37;100.00
6829;BME280;17930;48.592;8.868;2022-12-26T06:15:56;96788.31;;;7.24;100.00
6829;BME280;17930;48.592;8.868;2022-12-26T06:18:24;96787.78;;;7.27;100.00
6829;BME280;17930;48.592;8.868;2022-12-26T06:20:52;96788.09;;;7.30;100.00
6829;BME280;17930;48.592;8.868;2022-12-26T06:23:18;96777.72;;;7.30;100.00
6829;BME280;17930;48.592;8.868;2022-12-26T06:25:52;96780.91;;;7.42;100.00
6829;BME280;17930;48.592;8.868;2022-12-26T06:28:18;96771.09;;;7.54;100.00
6829;BME280;17930;48.592;8.868;2022-12-26T06:30:45;96776.84;;;7.61;100.00
6829;BME280;17930;48.592;8.868;2022-12-26T06:33:12;96778.97;;;7.69;100.00
6829;BME280;17930;48.592;8.868;2022-12-26T06:35:38;96773.81;;;7.79;100.00
6829;BME280;17930;48.592;8.868;2022-12-26T06:38:06;96761.41;;;7.86;100.00
6829;BME280;17930;48.592;8.868;2022-12-26T06:40:33;96766.03;;;7.84;100.00
6829;BME280;17930;48.592;8.868;2022-12-26T06:42:59;96767.31;;;7.76;100.00
6829;BME280;17930;48.592;8.868;2022-12-26T06:45:26;96773.56;;;7.80;100.00
6829;BME280;17930;48.592;8.868;2022-12-26T06:47:53;96773.91;;;7.99;100.00
6829;BME280;17930;48.592;8.868;2022-12-26T06:50:19;96762.72;;;7.93;100.00
6829;BME280;17930;48.592;8.868;2022-12-26T06:52:47;96753.63;;;7.91;100.00
6829;BME280;17930;48.592;8.868;2022-12-26T06:55:15;96761.13;;;7.87;100.00
6829;BME280;17930;48.592;8.868;2022-12-26T06:57:42;96761.41;;;7.86;100.00
6829;BME280;17930;48.592;8.868;2022-12-26T07:00:12;96760.84;;;7.79;100.00
6829;BME280;17930;48.592;8.868;2022-12-26T07:02:39;96755.16;;;7.82;100.00
6829;BME280;17930;48.592;8.868;2022-12-26T07:05:06;96750.97;;;7.76;100.00
6829;BME280;17930;48.592;8.868;2022-12-26T07:07:32;96755.63;;;7.74;100.00
6829;BME280;17930;48.592;8.868;2022-12-26T07:09:59;96767.16;;;7.98;100.00
6829;BME280;17930;48.592;8.868;2022-12-26T07:12:27;96756.72;;;7.88;100.00
6829;BME280;17930;48.592;8.868;2022-12-26T07:14:53;96769.09;;;7.71;100.00
6829;BME280;17930;48.592;8.868;2022-12-26T07:17:20;96774.75;;;7.58;100.00
6829;BME280;17930;48.592;8.868;2022-12-26T07:19:47;96784.06;;;7.49;100.00
6829;BME280;17930;48.592;8.868;2022-12-26T07:22:13;96780.13;;;7.47;100.00
6829;BME280;17930;48.592;8.868;2022-12-26T07:24:40;96781.16;;;7.46;100.00
6829;BME280;17930;48.592;8.868;2022-12-26T07:27:07;96788.16;;;7.40;100.00
6829;BME280;17930;48.592;8.868;2022-12-26T07:29:34;96783.19;;;7.34;100.00
6829;BME280;17930;48.592;8.868;2022-12-26T07:32:01;96790.22;;;7.38;100.00
6829;BME280;17930;48.592;8.868;2022-12-26T07:34:28;96801.56;;;7.27;100.00
6829;BME280;17930;48.592;8.868;2022-12-26T07:36:55;96800.00;;;7.26;100.00
6829;BME280;17930;48.592;8.868;2022-12-26T07:39:22;96792.81;;;7.38;100.00
6829;BME280;17930;48.592;8.868;2022-12-26T07:41:49;96792.03;;;7.43;100.00
6829;BME280;17930;48.592;8.868;2022-12-26T07:44:25;96806.38;;;7.50;100.00
6829;BME280;17930;48.592;8.868;2022-12-26T07:46:54;96806.91;;;7.52;100.00
6829;BME280;17930;48.592;8.868;2022-12-26T07:49:21;96812.09;;;7.52;100.00
6829;BME280;17930;48.592;8.868;2022-12-26T07:51:48;96818.31;;;7.51;100.00
6829;BME280;17930;48.592;8.868;2022-12-26T07:54:15;96812.88;;;7.53;100.00
6829;BME280;17930;48.592;8.868;2022-12-26T07:56:42;96811.88;;;7.59;100.00
6829;BME280;17930;48.592;8.868;2022-12-26T07:59:12;96819.16;;;7.62;100.00
6829;BME280;17930;48.592;8.868;2022-12-26T08:01:40;96813.72;;;7.63;100.00
6829;BME280;17930;48.592;8.868;2022-12-26T08:04:08;96818.38;;;7.61;100.00
6829;BME280;17930;48.592;8.868;2022-12-26T08:06:35;96807.31;;;7.75;100.00
6829;BME280;17930;48.592;8.868;2022-12-26T08:09:02;96811.78;;;7.95;100.00
6829;BME280;17930;48.592;8.868;2022-12-26T08:11:32;96803.50;;;7.93;100.00
6829;BME280;17930;48.592;8.868;2022-12-26T08:13:59;96797.28;;;7.99;100.00
6829;BME280;17930;48.592;8.868;2022-12-26T08:16:25;96786.94;;;8.09;100.00
6829;BME280;17930;48.592;8.868;2022-12-26T08:18:52;96786.16;;;8.08;100.00
6829;BME280;17930;48.592;8.868;2022-12-26T08:21:20;96801.97;;;8.02;100.00
6829;BME280;17930;48.592;8.868;2022-12-26T08:23:47;96811.88;;;8.10;100.00
6829;BME280;17930;48.592;8.868;2022-12-26T08:26:14;96814.47;;;8.10;100.00
6829;BME280;17930;48.592;8.868;2022-12-26T08:28:45;96817.09;;;8.15;100.00
6829;BME280;17930;48.592;8.868;2022-12-26T08:31:12;96822.84;;;8.21;100.00
6829;BME280;17930;48.592;8.868;2022-12-26T08:33:39;96830.94;;;8.30;100.00
6829;BME280;17930;48.592;8.868;2022-12-26T08:36:08;96838.47;;;8.31;100.00
6829;BME280;17930;48.592;8.868;2022-12-26T08:38:36;96845.50;;;8.36;100.00
6829;BME280;17930;48.592;8.868;2022-12-26T08:41:04;96859.81;;;8.38;100.00
6829;BME280;17930;48.592;8.868;2022-12-26T08:43:31;96862.91;;;8.40;100.00
6829;BME280;17930;48.592;8.868;2022-12-26T08:45:59;96866.59;;;8.49;100.00
6829;BME280;17930;48.592;8.868;2022-12-26T08:48:26;96877.28;;;8.58;100.00
6829;BME280;17930;48.592;8.868;2022-12-26T08:50:57;96865.09;;;8.68;100.00
6829;BME280;17930;48.592;8.868;2022-12-26T08:53:25;96864.88;;;8.74;100.00
6829;BME280;17930;48.592;8.868;2022-12-26T08:55:55;96868.50;;;8.88;100.00
6829;BME280;17930;48.592;8.868;2022-12-26T08:58:22;96885.44;;;8.86;100.00
6829;BME280;17930;48.592;8.868;2022-12-26T09:00:48;96876.59;;;8.92;100.00
6829;BME280;17930;48.592;8.868;2022-12-26T09:03:15;96888.56;;;8.98;100.00
6829;BME280;17930;48.592;8.868;2022-12-26T09:05:42;96895.34;;;9.04;100.00
6829;BME280;17930;48.592;8.868;2022-12-26T09:08:10;96891.19;;;9.03;100.00
6829;BME280;17930;48.592;8.868;2022-12-26T09:10:36;96895.34;;;9.04;100.00
6829;BME280;17930;48.592;8.868;2022-12-26T09:13:05;96894.03;;;9.01;100.00
6829;BME280;17930;48.592;8.868;2022-12-26T09:15:31;96888.06;;;9.06;100.00
6829;BME280;17930;48.592;8.868;2022-12-26T09:17:58;96900.03;;;9.12;100.00
6829;BME280;17930;48.592;8.868;2022-12-26T09:20:24;96889.13;;;9.19;100.00
6829;BME280;17930;48.592;8.868;2022-12-26T09:22:51;96902.66;;;9.31;100.00
6829;BME280;17930;48.592;8.868;2022-12-26T09:25:19;96918.78;;;9.33;100.00
6829;BME280;17930;48.592;8.868;2022-12-26T09:27:47;96919.56;;;9.39;100.00
6829;BME280;17930;48.592;8.868;2022-12-26T09:30:15;96920.38;;;9.39;100.00
6829;BME280;17930;48.592;8.868;2022-12-26T09:32:42;96925.59;;;9.49;100.00
6829;BME280;17930;48.592;8.868;2022-12-26T09:35:08;96920.38;;;9.44;100.00
6829;BME280;17930;48.592;8.868;2022-12-26T09:37:35;96913.06;;;9.51;100.00
6829;BME280;17930;48.592;8.868;2022-12-26T09:40:02;96924.78;;;9.44;100.00
6829;BME280;17930;48.592;8.868;2022-12-26T09:42:36;96919.06;;;9.42;100.00
6829;BME280;17930;48.592;8.868;2022-12-26T09:45:12;96934.94;;;9.40;100.00
6829;BME280;17930;48.592;8.868;2022-12-26T09:47:48;96939.09;;;9.41;100.00
6829;BME280;17930;48.592;8.868;2022-12-26T09:50:24;96944.84;;;9.38;100.00
6829;BME280;17930;48.592;8.868;2022-12-26T09:52:54;96951.06;;;9.32;100.00
6829;BME280;17930;48.592;8.868;2022-12-26T09:55:33;96957.56;;;9.35;100.00
6829;BME280;17930;48.592;8.868;2022-12-26T09:58:07;96953.13;;;9.30;100.00
6829;BME280;17930;48.592;8.868;2022-12-26T10:00:50;96959.16;;;9.31;100.00
6829;BME280;17930;48.592;8.868;2022-12-26T10:03:22;96953.66;;;9.27;100.00
6829;BME280;17930;48.592;8.868;2022-12-26T10:05:59;96959.91;;;9.21;100.00
6829;BME280;17930;48.592;8.868;2022-12-26T10:08:51;96965.88;;;9.22;100.00
6829;BME280;17930;48.592;8.868;2022-12-26T10:11:28;96975.50;;;9.26;100.00
6829;BME280;17930;48.592;8.868;2022-12-26T10:14:01;96975.03;;;9.29;100.00
6829;BME280;17930;48.592;8.868;2022-12-26T10:16:39;96970.88;;;9.38;100.00
6829;BME280;17930;48.592;8.868;2022-12-26T10:19:24;96993.53;;;9.38;100.00
6829;BME280;17930;48.592;8.868;2022-12-26T10:21:56;97008.88;;;9.39;100.00
6829;BME280;17930;48.592;8.868;2022-12-26T10:24:28;96990.63;;;9.34;100.00
6829;BME280;17930;48.592;8.868;2022-12-26T10:26:59;97004.16;;;9.36;100.00
6829;BME280;17930;48.592;8.868;2022-12-26T10:29:32;96996.38;;;9.51;100.00
6829;BME280;17930;48.592;8.868;2022-12-26T10:32:04;97000.28;;;9.44;100.00
6829;BME280;17930;48.592;8.868;2022-12-26T10:34:36;96996.91;;;9.48;100.00
6829;BME280;17930;48.592;8.868;2022-12-26T10:37:11;97006.03;;;9.51;100.00
6829;BME280;17930;48.592;8.868;2022-12-26T10:39:44;97018.78;;;9.52;100.00
6829;BME280;17930;48.592;8.868;2022-12-26T10:42:19;97030.47;;;9.40;100.00
6829;BME280;17930;48.592;8.868;2022-12-26T10:44:47;97017.75;;;9.58;100.00
6829;BME280;17930;48.592;8.868;2022-12-26T10:47:25;97009.41;;;9.51;100.00
6829;BME280;17930;48.592;8.868;2022-12-26T10:49:54;97012.53;;;9.58;100.00
6829;BME280;17930;48.592;8.868;2022-12-26T10:52:27;97026.59;;;9.67;100.00
6829;BME280;17930;48.592;8.868;2022-12-26T10:54:57;97007.06;;;9.65;100.00
6829;BME280;17930;48.592;8.868;2022-12-26T10:57:26;97015.41;;;9.67;100.00
6829;BME280;17930;48.592;8.868;2022-12-26T10:59:54;97020.09;;;9.69;100.00
6829;BME280;17930;48.592;8.868;2022-12-26T11:02:24;97017.22;;;9.61;100.00
6829;BME280;17930;48.592;8.868;2022-12-26T11:05:13;97010.22;;;9.67;100.00
6829;BME280;17930;48.592;8.868;2022-12-26T11:07:46;97010.47;;;9.65;100.00
6829;BME280;17930;48.592;8.868;2022-12-26T11:10:18;96993.78;;;9.66;100.00
6829;BME280;17930;48.592;8.868;2022-12-26T11:12:48;96986.75;;;9.62;100.00
6829;BME280;17930;48.592;8.868;2022-12-26T11:15:23;96982.31;;;9.57;100.00
6829;BME280;17930;48.592;8.868;2022-12-26T11:17:52;96977.66;;;9.59;100.00
6829;BME280;17930;48.592;8.868;2022-12-26T11:20:27;96982.63;;;9.61;100.00
6829;BME280;17930;48.592;8.868;2022-12-26T11:23:11;96987.81;;;9.66;100.00
6829;BME280;17930;48.592;8.868;2022-12-26T11:25:47;97001.88;;;9.74;100.00
6829;BME280;17930;48.592;8.868;2022-12-26T11:28:28;97001.63;;;9.76;100.00
6829;BME280;17930;48.592;8.868;2022-12-26T11:30:56;96996.41;;;9.81;100.00
6829;BME280;17930;48.592;8.868;2022-12-26T11:33:27;96996.16;;;9.87;100.00
6829;BME280;17930;48.592;8.868;2022-12-26T11:36:01;96996.94;;;9.88;100.00
6829;BME280;17930;48.592;8.868;2022-12-26T11:38:31;96996.94;;;9.78;100.00
6829;BME280;17930;48.592;8.868;2022-12-26T11:41:08;96999.03;;;9.76;100.00
6829;BME280;17930;48.592;8.868;2022-12-26T11:43:53;96992.78;;;9.72;100.00
6829;BME280;17930;48.592;8.868;2022-12-26T11:46:30;96983.38;;;9.66;100.00
6829;BME280;17930;48.592;8.868;2022-12-26T11:48:58;96971.69;;;9.64;100.00
6829;BME280;17930;48.592;8.868;2022-12-26T11:51:38;96969.31;;;9.67;100.00
6829;BME280;17930;48.592;8.868;2022-12-26T11:54:30;96962.53;;;9.66;100.00
6829;BME280;17930;48.592;8.868;2022-12-26T11:57:10;96960.72;;;9.71;100.00
6829;BME280;17930;48.592;8.868;2022-12-26T11:59:38;96965.66;;;9.73;100.00
6829;BME280;17930;48.592;8.868;2022-12-26T12:02:21;96964.63;;;9.74;100.00
6829;BME280;17930;48.592;8.868;2022-12-26T12:04:51;96976.09;;;9.73;100.00
6829;BME280;17930;48.592;8.868;2022-12-26T12:13:24;96998.22;;;9.85;100.00
6829;BME280;17930;48.592;8.868;2022-12-26T12:16:02;96990.44;;;9.80;100.00
6829;BME280;17930;48.592;8.868;2022-12-26T12:18:44;96976.09;;;9.73;100.00
6829;BME280;17930;48.592;8.868;2022-12-26T12:21:18;96962.81;;;9.69;100.00
6829;BME280;17930;48.592;8.868;2022-12-26T12:23:56;96964.63;;;9.74;100.00
6829;BME280;17930;48.592;8.868;2022-12-26T12:26:28;96965.41;;;9.69;100.00
6829;BME280;17930;48.592;8.868;2022-12-26T12:29:12;96971.94;;;9.72;100.00
6829;BME280;17930;48.592;8.868;2022-12-26T12:31:54;96958.38;;;9.70;100.00
6829;BME280;17930;48.592;8.868;2022-12-26T12:34:31;96942.22;;;9.73;100.00
6829;BME280;17930;48.592;8.868;2022-12-26T12:37:11;96952.66;;;9.73;100.00
6829;BME280;17930;48.592;8.868;2022-12-26T12:39:51;96953.44;;;9.83;100.00
6829;BME280;17930;48.592;8.868;2022-12-26T12:42:28;96949.25;;;9.82;100.00
6829;BME280;17930;48.592;8.868;2022-12-26T12:45:08;96956.81;;;9.84;100.00
6829;BME280;17930;48.592;8.868;2022-12-26T12:47:49;96955.78;;;9.90;100.00
6829;BME280;17930;48.592;8.868;2022-12-26T12:50:24;96956.31;;;9.92;100.00
6829;BME280;17930;48.592;8.868;2022-12-26T12:52:59;96947.44;;;9.88;100.00
6829;BME280;17930;48.592;8.868;2022-12-26T12:55:54;96967.78;;;9.86;100.00
6829;BME280;17930;48.592;8.868;2022-12-26T12:58:28;96957.84;;;9.83;100.00
6829;BME280;17930;48.592;8.868;2022-12-26T13:01:02;96959.44;;;9.84;100.00
6829;BME280;17930;48.592;8.868;2022-12-26T13:03:35;96954.22;;;9.84;100.00
6829;BME280;17930;48.592;8.868;2022-12-26T13:06:09;96943.53;;;9.90;100.00
6829;BME280;17930;48.592;8.868;2022-12-26T13:08:39;96962.56;;;9.91;100.00
6829;BME280;17930;48.592;8.868;2022-12-26T13:11:12;96972.47;;;9.89;100.00
6829;BME280;17930;48.592;8.868;2022-12-26T13:13:43;96975.06;;;9.84;100.00
6829;BME280;17930;48.592;8.868;2022-12-26T13:16:15;96963.06;;;9.83;100.00
6829;BME280;17930;48.592;8.868;2022-12-26T13:18:48;96950.56;;;9.85;100.00
6829;BME280;17930;48.592;8.868;2022-12-26T13:21:17;96940.13;;;9.90;100.00
6829;BME280;17930;48.592;8.868;2022-12-26T13:23:49;96917.22;;;9.87;100.00
6829;BME280;17930;48.592;8.868;2022-12-26T13:26:41;96916.19;;;9.88;100.00
6829;BME280;17930;48.592;8.868;2022-12-26T13:29:12;96880.25;;;9.85;100.00
6829;BME280;17930;48.592;8.868;2022-12-26T13:31:41;96922.44;;;9.92;100.00
6829;BME280;17930;48.592;8.868;2022-12-26T13:34:14;96949.00;;;9.84;100.00
6829;BME280;17930;48.592;8.868;2022-12-26T13:36:43;96952.16;;;9.76;100.00
6829;BME280;17930;48.592;8.868;2022-12-26T13:39:35;96953.16;;;9.80;100.00
6829;BME280;17930;48.592;8.868;2022-12-26T13:42:17;96957.38;;;9.76;100.00
6829;BME280;17930;48.592;8.868;2022-12-26T13:45:47;96924.53;;;9.85;100.00
6829;BME280;17930;48.592;8.868;2022-12-26T13:48:53;96918.50;;;9.84;100.00
6829;BME280;17930;48.592;8.868;2022-12-26T13:51:50;96911.78;;;9.83;100.00
6829;BME280;17930;48.592;8.868;2022-12-26T13:54:18;96906.81;;;9.87;100.00
6829;BME280;17930;48.592;8.868;2022-12-26T13:57:18;96917.50;;;9.80;100.00